sensor_id;sensor_type;location;lat;lon;timestamp;temperature;humidity
9193;DHT22;4631;49.296;10.560;2024-03-08T00:00:17;2.00;99.90
9193;DHT22;4631;49.296;10.560;2024-03-08T00:02:44;1.90;99.90
9193;DHT22;4631;49.296;10.560;2024-03-08T00:05:11;1.90;99.90
9193;DHT22;4631;49.296;10.560;2024-03-08T00:07:39;1.90;99.90
9193;DHT22;4631;49.296;10.560;2024-03-08T00:10:06;1.90;99.90
9193;DHT22;4631;49.296;10.560;2024-03-08T00:12:36;1.90;99.90
9193;DHT22;4631;49.296;10.560;2024-03-08T00:15:05;1.80;99.90
9193;DHT22;4631;49.296;10.560;2024-03-08T00:17:32;1.80;99.90
9193;DHT22;4631;49.296;10.560;2024-03-08T00:19:58;1.80;99.90
9193;DHT22;4631;49.296;10.560;2024-03-08T00:22:25;1.70;99.90
9193;DHT22;4631;49.296;10.560;2024-03-08T00:24:51;1.80;99.90
9193;DHT22;4631;49.296;10.560;2024-03-08T00:27:18;1.80;99.90
9193;DHT22;4631;49.296;10.560;2024-03-08T00:29:46;1.70;99.90
9193;DHT22;4631;49.296;10.560;2024-03-08T00:32:14;1.70;99.90
9193;DHT22;4631;49.296;10.560;2024-03-08T00:34:42;1.70;99.90
9193;DHT22;4631;49.296;10.560;2024-03-08T00:37:09;1.70;99.90
9193;DHT22;4631;49.296;10.560;2024-03-08T00:39:35;1.70;99.90
9193;DHT22;4631;49.296;10.560;2024-03-08T00:42:02;1.70;99.90
9193;DHT22;4631;49.296;10.560;2024-03-08T00:44:29;1.60;99.90
9193;DHT22;4631;49.296;10.560;2024-03-08T00:46:56;1.60;99.90
9193;DHT22;4631;49.296;10.560;2024-03-08T00:49:25;1.50;99.90
9193;DHT22;4631;49.296;10.560;2024-03-08T00:51:52;1.50;99.90
9193;DHT22;4631;49.296;10.560;2024-03-08T00:54:18;1.40;99.90
9193;DHT22;4631;49.296;10.560;2024-03-08T00:56:45;1.40;99.90
9193;DHT22;4631;49.296;10.560;2024-03-08T00:59:12;1.30;99.90
9193;DHT22;4631;49.296;10.560;2024-03-08T01:01:39;1.30;99.90
9193;DHT22;4631;49.296;10.560;2024-03-08T01:04:06;1.30;99.90
9193;DHT22;4631;49.296;10.560;2024-03-08T01:06:34;1.20;99.90
9193;DHT22;4631;49.296;10.560;2024-03-08T01:09:01;1.10;99.90
9193;DHT22;4631;49.296;10.560;2024-03-08T01:11:27;1.10;99.90
9193;DHT22;4631;49.296;10.560;2024-03-08T01:13:54;1.10;99.90
9193;DHT22;4631;49.296;10.560;2024-03-08T01:16:21;1.10;99.90
9193;DHT22;4631;49.296;10.560;2024-03-08T01:18:47;1.10;99.90
9193;DHT22;4631;49.296;10.560;2024-03-08T01:21:14;1.10;99.90
9193;DHT22;4631;49.296;10.560;2024-03-08T01:23:42;1.10;99.90
9193;DHT22;4631;49.296;10.560;2024-03-08T01:26:09;1.10;99.90
9193;DHT22;4631;49.296;10.560;2024-03-08T01:28:36;1.20;99.90
9193;DHT22;4631;49.296;10.560;2024-03-08T01:31:03;1.10;99.90
9193;DHT22;4631;49.296;10.560;2024-03-08T01:33:30;1.10;99.90
9193;DHT22;4631;49.296;10.560;2024-03-08T01:35:57;1.10;99.90
9193;DHT22;4631;49.296;10.560;2024-03-08T01:38:23;1.10;99.90
9193;DHT22;4631;49.296;10.560;2024-03-08T01:40:51;1.10;99.90
9193;DHT22;4631;49.296;10.560;2024-03-08T01:43:18;1.10;99.90
9193;DHT22;4631;49.296;10.560;2024-03-08T01:45:45;1.10;99.90
9193;DHT22;4631;49.296;10.560;2024-03-08T01:48:12;1.00;99.90
9193;DHT22;4631;49.296;10.560;2024-03-08T01:50:40;1.10;99.90
9193;DHT22;4631;49.296;10.560;2024-03-08T01:53:07;1.10;99.90
9193;DHT22;4631;49.296;10.560;2024-03-08T01:55:35;1.00;99.90
9193;DHT22;4631;49.296;10.560;2024-03-08T01:58:03;1.00;99.90
9193;DHT22;4631;49.296;10.560;2024-03-08T02:00:30;1.00;99.90
9193;DHT22;4631;49.296;10.560;2024-03-08T02:02:58;1.00;99.90
9193;DHT22;4631;49.296;10.560;2024-03-08T02:05:25;1.00;99.90
9193;DHT22;4631;49.296;10.560;2024-03-08T02:07:51;1.00;99.90
9193;DHT22;4631;49.296;10.560;2024-03-08T02:10:18;1.00;99.90
9193;DHT22;4631;49.296;10.560;2024-03-08T02:12:45;1.00;99.90
9193;DHT22;4631;49.296;10.560;2024-03-08T02:15:14;1.00;99.90
9193;DHT22;4631;49.296;10.560;2024-03-08T02:17:41;1.00;99.90
9193;DHT22;4631;49.296;10.560;2024-03-08T02:20:08;1.00;99.90
9193;DHT22;4631;49.296;10.560;2024-03-08T02:22:38;0.90;99.90
9193;DHT22;4631;49.296;10.560;2024-03-08T02:25:05;0.90;99.90
9193;DHT22;4631;49.296;10.560;2024-03-08T02:27:32;0.90;99.90
9193;DHT22;4631;49.296;10.560;2024-03-08T02:29:58;0.90;99.90
9193;DHT22;4631;49.296;10.560;2024-03-08T02:32:25;0.80;99.90
9193;DHT22;4631;49.296;10.560;2024-03-08T02:34:55;0.80;99.90
9193;DHT22;4631;49.296;10.560;2024-03-08T02:37:22;0.80;99.90
9193;DHT22;4631;49.296;10.560;2024-03-08T02:39:50;0.80;99.90
9193;DHT22;4631;49.296;10.560;2024-03-08T02:42:17;0.80;99.90
9193;DHT22;4631;49.296;10.560;2024-03-08T02:44:43;0.80;99.90
9193;DHT22;4631;49.296;10.560;2024-03-08T02:47:10;0.80;99.90
9193;DHT22;4631;49.296;10.560;2024-03-08T02:49:36;0.80;99.90
9193;DHT22;4631;49.296;10.560;2024-03-08T02:52:03;0.70;99.90
9193;DHT22;4631;49.296;10.560;2024-03-08T02:54:30;0.70;99.90
9193;DHT22;4631;49.296;10.560;2024-03-08T02:56:58;0.70;99.90
9193;DHT22;4631;49.296;10.560;2024-03-08T02:59:24;0.70;99.90
9193;DHT22;4631;49.296;10.560;2024-03-08T03:01:51;0.70;99.90
9193;DHT22;4631;49.296;10.560;2024-03-08T03:04:18;0.60;99.90
9193;DHT22;4631;49.296;10.560;2024-03-08T03:06:44;0.60;99.90
9193;DHT22;4631;49.296;10.560;2024-03-08T03:09:11;0.60;99.90
9193;DHT22;4631;49.296;10.560;2024-03-08T03:11:43;0.60;99.90
9193;DHT22;4631;49.296;10.560;2024-03-08T03:14:12;0.60;99.90
9193;DHT22;4631;49.296;10.560;2024-03-08T03:16:38;0.60;99.90
9193;DHT22;4631;49.296;10.560;2024-03-08T03:19:05;0.60;99.90
9193;DHT22;4631;49.296;10.560;2024-03-08T03:21:33;0.60;99.90
9193;DHT22;4631;49.296;10.560;2024-03-08T03:24:01;0.60;99.90
9193;DHT22;4631;49.296;10.560;2024-03-08T03:26:29;0.50;99.90
9193;DHT22;4631;49.296;10.560;2024-03-08T03:28:56;0.60;99.90
9193;DHT22;4631;49.296;10.560;2024-03-08T03:31:25;0.60;99.90
9193;DHT22;4631;49.296;10.560;2024-03-08T03:33:51;0.60;99.90
9193;DHT22;4631;49.296;10.560;2024-03-08T03:36:18;0.60;99.90
9193;DHT22;4631;49.296;10.560;2024-03-08T03:38:45;0.60;99.90
9193;DHT22;4631;49.296;10.560;2024-03-08T03:41:12;0.60;99.90
9193;DHT22;4631;49.296;10.560;2024-03-08T03:43:39;0.60;99.90
9193;DHT22;4631;49.296;10.560;2024-03-08T03:46:06;0.60;99.90
9193;DHT22;4631;49.296;10.560;2024-03-08T03:48:34;0.60;99.90
9193;DHT22;4631;49.296;10.560;2024-03-08T03:51:01;0.50;99.90
9193;DHT22;4631;49.296;10.560;2024-03-08T03:53:28;0.50;99.90
9193;DHT22;4631;49.296;10.560;2024-03-08T03:55:54;0.50;99.90
9193;DHT22;4631;49.296;10.560;2024-03-08T03:58:22;0.50;99.90
9193;DHT22;4631;49.296;10.560;2024-03-08T04:00:48;0.50;99.90
9193;DHT22;4631;49.296;10.560;2024-03-08T04:03:15;0.50;99.90
9193;DHT22;4631;49.296;10.560;2024-03-08T04:05:43;0.50;99.90
9193;DHT22;4631;49.296;10.560;2024-03-08T04:08:10;0.40;99.90
9193;DHT22;4631;49.296;10.560;2024-03-08T04:10:37;0.40;99.90
9193;DHT22;4631;49.296;10.560;2024-03-08T04:13:03;0.40;99.90
9193;DHT22;4631;49.296;10.560;2024-03-08T04:15:30;0.40;99.90
9193;DHT22;4631;49.296;10.560;2024-03-08T04:17:56;0.30;99.90
9193;DHT22;4631;49.296;10.560;2024-03-08T04:20:25;0.20;99.90
9193;DHT22;4631;49.296;10.560;2024-03-08T04:22:53;0.20;99.90
9193;DHT22;4631;49.296;10.560;2024-03-08T04:25:20;0.20;99.90
9193;DHT22;4631;49.296;10.560;2024-03-08T04:27:46;0.20;99.90
9193;DHT22;4631;49.296;10.560;2024-03-08T04:30:14;0.20;99.90
9193;DHT22;4631;49.296;10.560;2024-03-08T04:32:41;0.20;99.90
9193;DHT22;4631;49.296;10.560;2024-03-08T04:35:08;0.10;99.90
9193;DHT22;4631;49.296;10.560;2024-03-08T04:37:34;0.10;99.90
9193;DHT22;4631;49.296;10.560;2024-03-08T04:40:03;0.20;99.90
9193;DHT22;4631;49.296;10.560;2024-03-08T04:42:30;0.10;99.90
9193;DHT22;4631;49.296;10.560;2024-03-08T04:44:58;0.20;99.90
9193;DHT22;4631;49.296;10.560;2024-03-08T04:47:25;0.20;99.90
9193;DHT22;4631;49.296;10.560;2024-03-08T04:49:52;0.20;99.90
9193;DHT22;4631;49.296;10.560;2024-03-08T04:52:19;0.20;99.90
9193;DHT22;4631;49.296;10.560;2024-03-08T04:54:47;0.20;99.90
9193;DHT22;4631;49.296;10.560;2024-03-08T04:57:15;0.20;99.90
9193;DHT22;4631;49.296;10.560;2024-03-08T04:59:43;0.10;99.90
9193;DHT22;4631;49.296;10.560;2024-03-08T05:02:10;0.10;99.90
9193;DHT22;4631;49.296;10.560;2024-03-08T05:04:36;0.10;99.90
9193;DHT22;4631;49.296;10.560;2024-03-08T05:07:03;0.20;99.90
9193;DHT22;4631;49.296;10.560;2024-03-08T05:09:30;0.20;99.90
9193;DHT22;4631;49.296;10.560;2024-03-08T05:11:57;0.20;99.90
9193;DHT22;4631;49.296;10.560;2024-03-08T05:14:26;0.20;99.90
9193;DHT22;4631;49.296;10.560;2024-03-08T05:16:52;0.20;99.90
9193;DHT22;4631;49.296;10.560;2024-03-08T05:19:19;0.20;99.90
9193;DHT22;4631;49.296;10.560;2024-03-08T05:21:47;0.20;99.90
9193;DHT22;4631;49.296;10.560;2024-03-08T05:24:14;0.20;99.90
9193;DHT22;4631;49.296;10.560;2024-03-08T05:26:41;0.20;99.90
9193;DHT22;4631;49.296;10.560;2024-03-08T05:29:08;0.20;99.90
9193;DHT22;4631;49.296;10.560;2024-03-08T05:31:43;0.20;99.90
9193;DHT22;4631;49.296;10.560;2024-03-08T05:34:12;0.30;99.90
9193;DHT22;4631;49.296;10.560;2024-03-08T05:36:39;0.20;99.90
9193;DHT22;4631;49.296;10.560;2024-03-08T05:39:06;0.30;99.90
9193;DHT22;4631;49.296;10.560;2024-03-08T05:41:33;0.20;99.90
9193;DHT22;4631;49.296;10.560;2024-03-08T05:44:00;0.30;99.90
9193;DHT22;4631;49.296;10.560;2024-03-08T05:46:26;0.30;99.90
9193;DHT22;4631;49.296;10.560;2024-03-08T05:48:54;0.30;99.90
9193;DHT22;4631;49.296;10.560;2024-03-08T05:51:23;0.20;99.90
9193;DHT22;4631;49.296;10.560;2024-03-08T05:53:51;0.20;99.90
9193;DHT22;4631;49.296;10.560;2024-03-08T05:56:18;0.20;99.90
9193;DHT22;4631;49.296;10.560;2024-03-08T05:58:45;0.20;99.90
9193;DHT22;4631;49.296;10.560;2024-03-08T06:01:13;0.20;99.90
9193;DHT22;4631;49.296;10.560;2024-03-08T06:03:41;0.20;99.90
9193;DHT22;4631;49.296;10.560;2024-03-08T06:06:12;0.20;99.90
9193;DHT22;4631;49.296;10.560;2024-03-08T06:08:39;0.20;99.90
9193;DHT22;4631;49.296;10.560;2024-03-08T06:11:05;0.30;99.90
9193;DHT22;4631;49.296;10.560;2024-03-08T06:13:32;0.20;99.90
9193;DHT22;4631;49.296;10.560;2024-03-08T06:15:59;0.20;99.90
9193;DHT22;4631;49.296;10.560;2024-03-08T06:18:26;0.20;99.90
9193;DHT22;4631;49.296;10.560;2024-03-08T06:20:52;0.20;99.90
9193;DHT22;4631;49.296;10.560;2024-03-08T06:23:20;0.20;99.90
9193;DHT22;4631;49.296;10.560;2024-03-08T06:25:47;0.20;99.90
9193;DHT22;4631;49.296;10.560;2024-03-08T06:28:13;0.20;99.90
9193;DHT22;4631;49.296;10.560;2024-03-08T06:30:40;0.30;99.90
9193;DHT22;4631;49.296;10.560;2024-03-08T06:33:08;0.20;99.90
9193;DHT22;4631;49.296;10.560;2024-03-08T06:35:35;0.30;99.90
9193;DHT22;4631;49.296;10.560;2024-03-08T06:38:03;0.30;99.90
9193;DHT22;4631;49.296;10.560;2024-03-08T06:40:31;0.30;99.90
9193;DHT22;4631;49.296;10.560;2024-03-08T06:42:58;0.30;99.90
9193;DHT22;4631;49.296;10.560;2024-03-08T06:45:24;0.20;99.90
9193;DHT22;4631;49.296;10.560;2024-03-08T06:47:51;0.30;99.90
9193;DHT22;4631;49.296;10.560;2024-03-08T06:50:20;0.30;99.90
9193;DHT22;4631;49.296;10.560;2024-03-08T06:52:46;0.20;99.90
9193;DHT22;4631;49.296;10.560;2024-03-08T06:55:18;0.20;99.90
9193;DHT22;4631;49.296;10.560;2024-03-08T06:57:46;0.20;99.90
9193;DHT22;4631;49.296;10.560;2024-03-08T07:00:13;0.20;99.90
9193;DHT22;4631;49.296;10.560;2024-03-08T07:02:43;0.30;99.90
9193;DHT22;4631;49.296;10.560;2024-03-08T07:05:11;0.30;99.90
9193;DHT22;4631;49.296;10.560;2024-03-08T07:07:37;0.40;99.90
9193;DHT22;4631;49.296;10.560;2024-03-08T07:10:06;0.40;99.90
9193;DHT22;4631;49.296;10.560;2024-03-08T07:12:36;0.40;99.90
9193;DHT22;4631;49.296;10.560;2024-03-08T07:15:04;0.50;99.90
9193;DHT22;4631;49.296;10.560;2024-03-08T07:17:31;0.60;99.90
9193;DHT22;4631;49.296;10.560;2024-03-08T07:19:59;0.60;99.90
9193;DHT22;4631;49.296;10.560;2024-03-08T07:22:32;0.60;99.90
9193;DHT22;4631;49.296;10.560;2024-03-08T07:24:59;0.70;99.90
9193;DHT22;4631;49.296;10.560;2024-03-08T07:27:45;0.70;99.90
9193;DHT22;4631;49.296;10.560;2024-03-08T07:30:13;0.80;99.90
9193;DHT22;4631;49.296;10.560;2024-03-08T07:33:00;0.90;99.90
9193;DHT22;4631;49.296;10.560;2024-03-08T07:35:28;0.90;99.90
9193;DHT22;4631;49.296;10.560;2024-03-08T07:37:54;0.90;99.90
9193;DHT22;4631;49.296;10.560;2024-03-08T07:40:21;1.00;99.90
9193;DHT22;4631;49.296;10.560;2024-03-08T07:42:48;1.10;99.90
9193;DHT22;4631;49.296;10.560;2024-03-08T07:45:16;1.10;99.90
9193;DHT22;4631;49.296;10.560;2024-03-08T07:47:43;1.20;99.90
9193;DHT22;4631;49.296;10.560;2024-03-08T07:50:10;1.20;99.90
9193;DHT22;4631;49.296;10.560;2024-03-08T07:52:36;1.30;99.90
9193;DHT22;4631;49.296;10.560;2024-03-08T07:55:03;1.30;99.90
9193;DHT22;4631;49.296;10.560;2024-03-08T07:57:31;1.40;99.90
9193;DHT22;4631;49.296;10.560;2024-03-08T07:59:58;1.50;99.90
9193;DHT22;4631;49.296;10.560;2024-03-08T08:02:26;1.50;99.90
9193;DHT22;4631;49.296;10.560;2024-03-08T08:04:53;1.60;99.90
9193;DHT22;4631;49.296;10.560;2024-03-08T08:07:20;1.60;99.90
9193;DHT22;4631;49.296;10.560;2024-03-08T08:09:48;1.70;99.90
9193;DHT22;4631;49.296;10.560;2024-03-08T08:12:14;1.70;99.90
9193;DHT22;4631;49.296;10.560;2024-03-08T08:14:41;1.80;99.90
9193;DHT22;4631;49.296;10.560;2024-03-08T08:17:08;1.90;99.90
9193;DHT22;4631;49.296;10.560;2024-03-08T08:19:36;1.90;99.90
9193;DHT22;4631;49.296;10.560;2024-03-08T08:22:03;2.00;99.90
9193;DHT22;4631;49.296;10.560;2024-03-08T08:24:30;2.00;99.90
9193;DHT22;4631;49.296;10.560;2024-03-08T08:26:57;2.10;99.90
9193;DHT22;4631;49.296;10.560;2024-03-08T08:29:23;2.10;99.90
9193;DHT22;4631;49.296;10.560;2024-03-08T08:31:50;2.20;99.90
9193;DHT22;4631;49.296;10.560;2024-03-08T08:34:17;2.20;99.90
9193;DHT22;4631;49.296;10.560;2024-03-08T08:36:46;2.30;99.90
9193;DHT22;4631;49.296;10.560;2024-03-08T08:39:12;2.40;99.90
9193;DHT22;4631;49.296;10.560;2024-03-08T08:41:39;2.40;99.90
9193;DHT22;4631;49.296;10.560;2024-03-08T08:44:06;2.40;99.90
9193;DHT22;4631;49.296;10.560;2024-03-08T08:46:35;2.50;99.90
9193;DHT22;4631;49.296;10.560;2024-03-08T08:49:03;2.50;99.90
9193;DHT22;4631;49.296;10.560;2024-03-08T08:51:29;2.60;99.90
9193;DHT22;4631;49.296;10.560;2024-03-08T08:54:00;2.70;99.90
9193;DHT22;4631;49.296;10.560;2024-03-08T08:56:26;2.80;99.90
9193;DHT22;4631;49.296;10.560;2024-03-08T08:58:53;2.80;99.90
9193;DHT22;4631;49.296;10.560;2024-03-08T09:01:20;2.90;99.90
9193;DHT22;4631;49.296;10.560;2024-03-08T09:03:47;3.00;99.90
9193;DHT22;4631;49.296;10.560;2024-03-08T09:06:15;3.10;99.90
9193;DHT22;4631;49.296;10.560;2024-03-08T09:08:42;3.10;99.90
9193;DHT22;4631;49.296;10.560;2024-03-08T09:11:10;3.30;99.90
9193;DHT22;4631;49.296;10.560;2024-03-08T09:13:37;3.40;99.90
9193;DHT22;4631;49.296;10.560;2024-03-08T09:16:04;3.50;99.90
9193;DHT22;4631;49.296;10.560;2024-03-08T09:18:32;3.60;99.90
9193;DHT22;4631;49.296;10.560;2024-03-08T09:20:58;3.60;99.90
9193;DHT22;4631;49.296;10.560;2024-03-08T09:23:26;3.80;99.90
9193;DHT22;4631;49.296;10.560;2024-03-08T09:25:55;3.90;99.90
9193;DHT22;4631;49.296;10.560;2024-03-08T09:28:24;4.00;99.90
9193;DHT22;4631;49.296;10.560;2024-03-08T09:30:52;4.20;99.90
9193;DHT22;4631;49.296;10.560;2024-03-08T09:33:20;4.30;99.90
9193;DHT22;4631;49.296;10.560;2024-03-08T09:35:47;4.40;99.90
9193;DHT22;4631;49.296;10.560;2024-03-08T09:38:14;4.40;99.90
9193;DHT22;4631;49.296;10.560;2024-03-08T09:40:40;4.40;99.90
9193;DHT22;4631;49.296;10.560;2024-03-08T09:43:07;4.50;99.90
9193;DHT22;4631;49.296;10.560;2024-03-08T09:45:36;4.50;99.90
9193;DHT22;4631;49.296;10.560;2024-03-08T09:48:05;4.50;99.90
9193;DHT22;4631;49.296;10.560;2024-03-08T09:50:32;4.50;99.90
9193;DHT22;4631;49.296;10.560;2024-03-08T09:53:00;4.50;99.90
9193;DHT22;4631;49.296;10.560;2024-03-08T09:55:28;4.60;99.90
9193;DHT22;4631;49.296;10.560;2024-03-08T09:57:59;4.60;99.90
9193;DHT22;4631;49.296;10.560;2024-03-08T10:00:45;4.70;99.90
9193;DHT22;4631;49.296;10.560;2024-03-08T10:03:12;4.90;99.90
9193;DHT22;4631;49.296;10.560;2024-03-08T10:05:40;5.00;99.90
9193;DHT22;4631;49.296;10.560;2024-03-08T10:08:07;5.20;99.90
9193;DHT22;4631;49.296;10.560;2024-03-08T10:10:34;5.30;99.90
9193;DHT22;4631;49.296;10.560;2024-03-08T10:13:01;5.40;99.90
9193;DHT22;4631;49.296;10.560;2024-03-08T10:15:27;5.50;99.90
9193;DHT22;4631;49.296;10.560;2024-03-08T10:17:56;5.60;99.90
9193;DHT22;4631;49.296;10.560;2024-03-08T10:20:23;5.60;99.90
9193;DHT22;4631;49.296;10.560;2024-03-08T10:22:50;5.80;99.90
9193;DHT22;4631;49.296;10.560;2024-03-08T10:25:16;5.90;99.90
9193;DHT22;4631;49.296;10.560;2024-03-08T10:27:43;6.00;99.90
9193;DHT22;4631;49.296;10.560;2024-03-08T10:30:10;6.00;99.90
9193;DHT22;4631;49.296;10.560;2024-03-08T10:32:39;6.10;99.90
9193;DHT22;4631;49.296;10.560;2024-03-08T10:35:08;6.20;99.90
9193;DHT22;4631;49.296;10.560;2024-03-08T10:37:36;6.10;99.90
9193;DHT22;4631;49.296;10.560;2024-03-08T10:40:08;6.20;99.90
9193;DHT22;4631;49.296;10.560;2024-03-08T10:42:37;6.30;99.90
9193;DHT22;4631;49.296;10.560;2024-03-08T10:45:09;6.40;99.90
9193;DHT22;4631;49.296;10.560;2024-03-08T10:47:41;6.50;99.90
9193;DHT22;4631;49.296;10.560;2024-03-08T10:50:10;6.60;99.90
9193;DHT22;4631;49.296;10.560;2024-03-08T10:52:38;6.70;99.90
9193;DHT22;4631;49.296;10.560;2024-03-08T10:55:05;6.90;99.90
9193;DHT22;4631;49.296;10.560;2024-03-08T10:57:38;7.10;99.90
9193;DHT22;4631;49.296;10.560;2024-03-08T11:00:05;7.30;99.90
9193;DHT22;4631;49.296;10.560;2024-03-08T11:02:35;7.50;99.90
9193;DHT22;4631;49.296;10.560;2024-03-08T11:05:03;7.60;99.90
9193;DHT22;4631;49.296;10.560;2024-03-08T11:07:34;7.70;99.90
9193;DHT22;4631;49.296;10.560;2024-03-08T11:10:02;7.70;99.90
9193;DHT22;4631;49.296;10.560;2024-03-08T11:12:29;7.80;99.90
9193;DHT22;4631;49.296;10.560;2024-03-08T11:15:03;7.70;99.90
9193;DHT22;4631;49.296;10.560;2024-03-08T11:17:44;7.70;99.90
9193;DHT22;4631;49.296;10.560;2024-03-08T11:20:11;7.90;99.90
9193;DHT22;4631;49.296;10.560;2024-03-08T11:22:49;8.10;99.90
9193;DHT22;4631;49.296;10.560;2024-03-08T11:25:35;8.30;99.90
9193;DHT22;4631;49.296;10.560;2024-03-08T11:28:07;8.30;99.90
9193;DHT22;4631;49.296;10.560;2024-03-08T11:30:33;8.40;99.90
9193;DHT22;4631;49.296;10.560;2024-03-08T11:33:00;8.50;99.90
9193;DHT22;4631;49.296;10.560;2024-03-08T11:35:28;8.70;99.90
9193;DHT22;4631;49.296;10.560;2024-03-08T11:37:58;8.80;99.90
9193;DHT22;4631;49.296;10.560;2024-03-08T11:40:25;9.00;99.90
9193;DHT22;4631;49.296;10.560;2024-03-08T11:42:52;9.10;99.90
9193;DHT22;4631;49.296;10.560;2024-03-08T11:45:20;9.20;99.90
9193;DHT22;4631;49.296;10.560;2024-03-08T11:47:47;9.30;99.90
9193;DHT22;4631;49.296;10.560;2024-03-08T11:50:14;9.40;99.90
9193;DHT22;4631;49.296;10.560;2024-03-08T11:52:41;9.50;99.90
9193;DHT22;4631;49.296;10.560;2024-03-08T11:55:09;9.60;99.90
9193;DHT22;4631;49.296;10.560;2024-03-08T11:57:38;9.80;99.90
9193;DHT22;4631;49.296;10.560;2024-03-08T12:00:05;10.00;99.90
9193;DHT22;4631;49.296;10.560;2024-03-08T12:02:32;10.20;99.90
9193;DHT22;4631;49.296;10.560;2024-03-08T12:05:00;10.30;99.90
9193;DHT22;4631;49.296;10.560;2024-03-08T12:07:28;10.40;99.90
9193;DHT22;4631;49.296;10.560;2024-03-08T12:10:18;10.60;99.90
9193;DHT22;4631;49.296;10.560;2024-03-08T12:12:44;10.80;99.90
9193;DHT22;4631;49.296;10.560;2024-03-08T12:15:12;10.60;99.90
9193;DHT22;4631;49.296;10.560;2024-03-08T12:17:39;10.60;99.90
9193;DHT22;4631;49.296;10.560;2024-03-08T12:20:12;10.70;99.90
9193;DHT22;4631;49.296;10.560;2024-03-08T12:22:40;10.70;99.90
9193;DHT22;4631;49.296;10.560;2024-03-08T12:25:06;10.70;99.90
9193;DHT22;4631;49.296;10.560;2024-03-08T12:27:37;10.80;99.90
9193;DHT22;4631;49.296;10.560;2024-03-08T12:30:17;10.90;99.90
9193;DHT22;4631;49.296;10.560;2024-03-08T12:32:48;10.80;99.90
9193;DHT22;4631;49.296;10.560;2024-03-08T12:35:17;10.70;99.90
9193;DHT22;4631;49.296;10.560;2024-03-08T12:37:44;10.90;99.90
9193;DHT22;4631;49.296;10.560;2024-03-08T12:40:10;11.00;99.90
9193;DHT22;4631;49.296;10.560;2024-03-08T12:42:43;11.30;99.90
9193;DHT22;4631;49.296;10.560;2024-03-08T12:45:12;11.50;99.90
9193;DHT22;4631;49.296;10.560;2024-03-08T12:47:39;11.50;99.90
9193;DHT22;4631;49.296;10.560;2024-03-08T12:50:07;11.40;99.90
9193;DHT22;4631;49.296;10.560;2024-03-08T12:52:34;11.30;99.90
9193;DHT22;4631;49.296;10.560;2024-03-08T12:55:02;11.40;99.90
9193;DHT22;4631;49.296;10.560;2024-03-08T12:57:32;11.40;99.90
9193;DHT22;4631;49.296;10.560;2024-03-08T13:00:01;11.50;99.90
9193;DHT22;4631;49.296;10.560;2024-03-08T13:02:28;11.60;99.90
9193;DHT22;4631;49.296;10.560;2024-03-08T13:04:56;11.50;99.90
9193;DHT22;4631;49.296;10.560;2024-03-08T13:07:23;11.50;99.90
9193;DHT22;4631;49.296;10.560;2024-03-08T13:09:51;11.70;99.90
9193;DHT22;4631;49.296;10.560;2024-03-08T13:12:17;11.80;99.90
9193;DHT22;4631;49.296;10.560;2024-03-08T13:14:45;12.10;99.90
9193;DHT22;4631;49.296;10.560;2024-03-08T13:17:13;12.30;99.90
9193;DHT22;4631;49.296;10.560;2024-03-08T13:19:40;12.20;99.90
9193;DHT22;4631;49.296;10.560;2024-03-08T13:22:07;12.40;99.90
9193;DHT22;4631;49.296;10.560;2024-03-08T13:24:37;12.70;99.90
9193;DHT22;4631;49.296;10.560;2024-03-08T13:27:06;13.00;99.90
9193;DHT22;4631;49.296;10.560;2024-03-08T13:29:45;13.20;99.90
9193;DHT22;4631;49.296;10.560;2024-03-08T13:32:12;13.10;99.90
9193;DHT22;4631;49.296;10.560;2024-03-08T13:34:41;13.10;99.90
9193;DHT22;4631;49.296;10.560;2024-03-08T13:37:08;12.90;99.90
9193;DHT22;4631;49.296;10.560;2024-03-08T13:39:35;12.70;99.90
9193;DHT22;4631;49.296;10.560;2024-03-08T13:42:06;12.80;99.90
9193;DHT22;4631;49.296;10.560;2024-03-08T13:44:35;12.80;99.90
9193;DHT22;4631;49.296;10.560;2024-03-08T13:47:01;12.80;99.90
9193;DHT22;4631;49.296;10.560;2024-03-08T13:49:30;13.10;99.90
9193;DHT22;4631;49.296;10.560;2024-03-08T13:51:58;13.30;99.90
9193;DHT22;4631;49.296;10.560;2024-03-08T13:54:25;13.00;99.90
9193;DHT22;4631;49.296;10.560;2024-03-08T13:56:52;12.80;99.90
9193;DHT22;4631;49.296;10.560;2024-03-08T13:59:19;13.00;99.90
9193;DHT22;4631;49.296;10.560;2024-03-08T14:01:47;13.10;99.90
9193;DHT22;4631;49.296;10.560;2024-03-08T14:04:14;13.20;99.90
9193;DHT22;4631;49.296;10.560;2024-03-08T14:06:42;13.40;99.90
9193;DHT22;4631;49.296;10.560;2024-03-08T14:09:11;13.50;99.90
9193;DHT22;4631;49.296;10.560;2024-03-08T14:11:42;13.60;99.90
9193;DHT22;4631;49.296;10.560;2024-03-08T14:14:09;13.80;99.90
9193;DHT22;4631;49.296;10.560;2024-03-08T14:16:37;14.10;99.90
9193;DHT22;4631;49.296;10.560;2024-03-08T14:19:04;14.30;99.90
9193;DHT22;4631;49.296;10.560;2024-03-08T14:21:32;14.20;99.90
9193;DHT22;4631;49.296;10.560;2024-03-08T14:23:58;14.30;99.90
9193;DHT22;4631;49.296;10.560;2024-03-08T14:26:26;14.30;99.90
9193;DHT22;4631;49.296;10.560;2024-03-08T14:28:53;14.40;99.90
9193;DHT22;4631;49.296;10.560;2024-03-08T14:31:20;14.50;98.90
9193;DHT22;4631;49.296;10.560;2024-03-08T14:33:50;14.70;99.10
9193;DHT22;4631;49.296;10.560;2024-03-08T14:36:18;14.90;99.20
9193;DHT22;4631;49.296;10.560;2024-03-08T14:38:45;15.00;99.40
9193;DHT22;4631;49.296;10.560;2024-03-08T14:41:12;15.00;99.20
9193;DHT22;4631;49.296;10.560;2024-03-08T14:43:43;15.00;99.30
9193;DHT22;4631;49.296;10.560;2024-03-08T14:46:10;15.00;98.60
9193;DHT22;4631;49.296;10.560;2024-03-08T14:48:39;14.70;99.60
9193;DHT22;4631;49.296;10.560;2024-03-08T14:51:06;14.60;99.70
9193;DHT22;4631;49.296;10.560;2024-03-08T14:53:35;14.60;99.90
9193;DHT22;4631;49.296;10.560;2024-03-08T14:56:05;14.10;99.20
9193;DHT22;4631;49.296;10.560;2024-03-08T14:58:31;13.80;99.90
9193;DHT22;4631;49.296;10.560;2024-03-08T15:00:59;13.70;99.90
9193;DHT22;4631;49.296;10.560;2024-03-08T15:03:27;13.60;99.90
9193;DHT22;4631;49.296;10.560;2024-03-08T15:05:54;13.40;99.90
9193;DHT22;4631;49.296;10.560;2024-03-08T15:08:21;13.40;99.90
9193;DHT22;4631;49.296;10.560;2024-03-08T15:10:49;13.60;99.90
9193;DHT22;4631;49.296;10.560;2024-03-08T15:13:19;13.50;99.90
9193;DHT22;4631;49.296;10.560;2024-03-08T15:15:48;13.10;99.90
9193;DHT22;4631;49.296;10.560;2024-03-08T15:18:22;13.20;99.90
9193;DHT22;4631;49.296;10.560;2024-03-08T15:20:51;13.20;99.90
9193;DHT22;4631;49.296;10.560;2024-03-08T15:23:18;13.50;99.90
9193;DHT22;4631;49.296;10.560;2024-03-08T15:25:46;13.60;99.90
9193;DHT22;4631;49.296;10.560;2024-03-08T15:28:14;13.60;99.90
9193;DHT22;4631;49.296;10.560;2024-03-08T15:30:43;13.40;99.90
9193;DHT22;4631;49.296;10.560;2024-03-08T15:33:12;13.10;99.90
9193;DHT22;4631;49.296;10.560;2024-03-08T15:35:42;13.00;99.90
9193;DHT22;4631;49.296;10.560;2024-03-08T15:38:13;13.10;99.90
9193;DHT22;4631;49.296;10.560;2024-03-08T15:40:40;13.00;99.90
9193;DHT22;4631;49.296;10.560;2024-03-08T15:43:07;13.10;99.90
9193;DHT22;4631;49.296;10.560;2024-03-08T15:45:34;13.10;99.90
9193;DHT22;4631;49.296;10.560;2024-03-08T15:48:02;12.90;99.90
9193;DHT22;4631;49.296;10.560;2024-03-08T15:50:30;12.60;99.90
9193;DHT22;4631;49.296;10.560;2024-03-08T15:52:58;12.30;99.90
9193;DHT22;4631;49.296;10.560;2024-03-08T15:55:25;12.20;99.90
9193;DHT22;4631;49.296;10.560;2024-03-08T15:57:53;12.20;99.90
9193;DHT22;4631;49.296;10.560;2024-03-08T16:00:20;12.10;99.90